Map

Track Data

SID SEASON NUMBER BASIN SUBBASIN NAME ISO_TIME NATURE LAT LON WMO_WIND WMO_PRES WMO_AGENCY TRACK_TYPE DIST2LAND LANDFALL IFLAG USA_AGENCY USA_ATCF_ID USA_LAT USA_LON USA_RECORD USA_STATUS USA_WIND USA_PRES USA_SSHS USA_R34_NE USA_R34_SE USA_R34_SW USA_R34_NW USA_R50_NE USA_R50_SE USA_R50_SW USA_R50_NW USA_R64_NE USA_R64_SE USA_R64_SW USA_R64_NW USA_POCI USA_ROCI USA_RMW USA_EYE TOKYO_LAT TOKYO_LON TOKYO_GRADE TOKYO_WIND TOKYO_PRES TOKYO_R50_DIR TOKYO_R50_LONG TOKYO_R50_SHORT TOKYO_R30_DIR TOKYO_R30_LONG TOKYO_R30_SHORT TOKYO_LAND CMA_LAT CMA_LON CMA_CAT CMA_WIND CMA_PRES HKO_LAT HKO_LON HKO_CAT HKO_WIND HKO_PRES NEWDELHI_LAT NEWDELHI_LON NEWDELHI_GRADE NEWDELHI_WIND NEWDELHI_PRES NEWDELHI_CI NEWDELHI_DP NEWDELHI_POCI REUNION_LAT REUNION_LON REUNION_TYPE REUNION_WIND REUNION_PRES REUNION_TNUM REUNION_CI REUNION_RMW REUNION_R34_NE REUNION_R34_SE REUNION_R34_SW REUNION_R34_NW REUNION_R50_NE REUNION_R50_SE REUNION_R50_SW REUNION_R50_NW REUNION_R64_NE REUNION_R64_SE REUNION_R64_SW REUNION_R64_NW BOM_LAT BOM_LON BOM_TYPE BOM_WIND BOM_PRES BOM_TNUM BOM_CI BOM_RMW BOM_R34_NE BOM_R34_SE BOM_R34_SW BOM_R34_NW BOM_R50_NE BOM_R50_SE BOM_R50_SW BOM_R50_NW BOM_R64_NE BOM_R64_SE BOM_R64_SW BOM_R64_NW BOM_ROCI BOM_POCI BOM_EYE BOM_POS_METHOD BOM_PRES_METHOD NADI_LAT NADI_LON NADI_CAT NADI_WIND NADI_PRES WELLINGTON_LAT WELLINGTON_LON WELLINGTON_WIND WELLINGTON_PRES DS824_LAT DS824_LON DS824_STAGE DS824_WIND DS824_PRES TD9636_LAT TD9636_LON TD9636_STAGE TD9636_WIND TD9636_PRES TD9635_LAT TD9635_LON TD9635_WIND TD9635_PRES TD9635_ROCI NEUMANN_LAT NEUMANN_LON NEUMANN_CLASS NEUMANN_WIND NEUMANN_PRES MLC_LAT MLC_LON MLC_CLASS MLC_WIND MLC_PRES USA_GUST BOM_GUST BOM_GUST_PER REUNION_GUST REUNION_GUST_PER USA_SEAHGT USA_SEARAD_NE USA_SEARAD_SE USA_SEARAD_SW USA_SEARAD_NW STORM_SPEED STORM_DIR
1985012S11085 1985 7 SI MM NOT_NAMED 1985-01-12 06:00:00 TS -10.7000 84.7000 main 1865 1843 O___________O_ jtwc_sh SH121985 -10.7000 84.7000 XX 25 -5 -10.7000 84.7000 TC 25 8 118
1985012S11085 1985 7 SI MM NOT_NAMED 1985-01-12 09:00:00 TS -10.8876 85.0599 main 1840 1834 P___________P_ SH121985 -10.8876 85.0599 XX 25 -5 -10.8876 85.0599 TC 25 8 126
1985012S11085 1985 7 SI MM NOT_NAMED 1985-01-12 12:00:00 TS -11.1714 85.3571 main 1832 1818 O_________O_O_ jtwc_sh SH121985 -11.1000 85.4000 XX 25 -5 -11.6000 85.1000 2 -11.1000 85.4000 TC 25 8 132
1985012S11085 1985 7 SI MM NOT_NAMED 1985-01-12 15:00:00 TS -11.4282 85.6712 main 1818 1811 P_________P_P_ SH121985 -11.3499 85.7075 XX 25 -5 -11.7413 85.5261 2 -11.3499 85.7075 TC 25 8 130
1985012S11085 1985 7 SI MM NOT_NAMED 1985-01-12 18:00:00 TS -11.6807 85.9787 main 1811 1799 O_________P_O_ jtwc_sh SH121985 -11.6000 86.0000 XX 25 -5 -11.8958 85.9220 2 -11.6000 86.0000 TC 25 8 127
1985012S11085 1985 7 SI MM NOT_NAMED 1985-01-12 21:00:00 TS -11.8925 86.3056 main 1799 1788 P_________P_P_ SH121985 -11.8000 86.3300 XX 25 -5 -12.0773 86.2569 2 -11.8000 86.3300 TC 25 7 126
1985012S11085 1985 7 SI MM NOT_NAMED 1985-01-13 00:00:00 TS -12.1000 86.5667 main 1788 1787 O_________O_O_ jtwc_sh SH121985 -12.0000 86.6000 XX 25 -5 -12.3000 86.5000 2 -12.0000 86.6000 TC 25 6 139
1985012S11085 1985 7 SI MM NOT_NAMED 1985-01-13 03:00:00 TS -12.3567 86.7120 main 1802 1801 P_________P_P_ SH121985 -12.2499 86.7525 XX 25 -5 -12.5703 86.6309 2 -12.2499 86.7525 TC 25 6 160
1985012S11085 1985 7 SI MM NOT_NAMED 1985-01-13 06:00:00 TS -12.6216 86.7568 main 1808 1808 O_________P_O_ jtwc_sh SH121985 -12.5000 86.8000 XX 25 -5 -12.8647 86.6703 2 -12.5000 86.8000 TC 25 5 178
1985012S11085 1985 7 SI MM NOT_NAMED 1985-01-13 09:00:00 TS -12.8506 86.7365 main 1839 1839 P_________P_P_ SH121985 -12.7000 86.7800 XX 25 -5 -13.1517 86.6496 2 -12.7000 86.7800 TC 25 5 192
1985012S11085 1985 7 SI MM NOT_NAMED 1985-01-13 12:00:00 TS -13.0667 86.6667 main 1854 1854 O_________O_O_ jtwc_sh SH121985 -12.9000 86.7000 XX 25 -5 -13.4000 86.6000 2 -12.9000 86.7000 TC 25 5 197
1985012S11085 1985 7 SI MM NOT_NAMED 1985-01-13 15:00:00 TS -13.2930 86.5946 main 1877 1877 P_________P_P_ SH121985 -13.1575 86.6000 XX 25 -5 -13.5640 86.5837 2 -13.1575 86.6000 TC 25 5 199
1985012S11085 1985 7 SI MM NOT_NAMED 1985-01-13 18:00:00 TS -13.4958 86.5150 main 1900 1900 O_________P_O_ jtwc_sh SH121985 -13.4000 86.5000 XX 25 -5 -13.6875 86.5450 2 -13.4000 86.5000 TC 25 4 200
1985012S11085 1985 7 SI MM NOT_NAMED 1985-01-13 21:00:00 TS -13.6457 86.4612 main 1908 1908 P_________P_P_ SH121985 -13.5725 86.4500 XX 25 -5 -13.7921 86.4837 2 -13.5725 86.4500 TC 25 3 203
1985012S11085 1985 7 SI MM NOT_NAMED 1985-01-14 00:00:00 TS -13.7667 86.4000 main 1931 1931 O_________O_O_ jtwc_sh SH121985 -13.7000 86.4000 XX 25 -5 -13.9000 86.4000 2 -13.7000 86.4000 TC 25 3 213
1985012S11085 1985 7 SI MM NOT_NAMED 1985-01-14 03:00:00 TS -13.8837 86.3025 main 1946 1946 P_________P_P_ SH121985 -13.8000 86.3075 XX 25 -5 -14.0510 86.2926 2 -13.8000 86.3075 TC 25 3 221
1985012S11085 1985 7 SI MM NOT_NAMED 1985-01-14 06:00:00 TS -14.0025 86.1884 main 1962 1962 O_________P_O_ jtwc_sh SH121985 -13.9000 86.2000 XX 25 -5 -14.2076 86.1651 2 -13.9000 86.2000 TC 25 3 220
1985012S11085 1985 7 SI MM NOT_NAMED 1985-01-14 09:00:00 TS -14.1484 86.0767 main 1977 1977 P_________P_P_ SH121985 -14.0425 86.1000 XX 25 -5 -14.3603 86.0301 2 -14.0425 86.1000 TC 25 4 216
1985012S11085 1985 7 SI MM NOT_NAMED 1985-01-14 12:00:00 TS -14.3000 85.9667 main 2001 2001 O_________O_O_ jtwc_sh SH121985 -14.2000 86.0000 XX 25 -5 -14.5000 85.9000 2 -14.2000 86.0000 TC 25 4 215
1985012S11085 1985 7 SI MM NOT_NAMED 1985-01-14 15:00:00 TS -14.4418 85.8642 main 2016 2016 P_________P_P_ SH121985 -14.3575 85.9000 XX 27 -5 -14.6103 85.7927 2 -14.3575 85.9000 TC 27 3 216
1985012S11085 1985 7 SI MM NOT_NAMED 1985-01-14 18:00:00 TS -14.5692 85.7641 main 2039 2039 O_________P_O_ jtwc_sh SH121985 -14.5000 85.8000 XX 30 -5 -14.7075 85.6924 2 -14.5000 85.8000 TC 30 3 219
1985012S11085 1985 7 SI MM NOT_NAMED 1985-01-14 21:00:00 TS -14.6770 85.6653 main 2055 2055 P_________P_P_ SH121985 -14.6150 85.7000 XX 30 -5 -14.8009 85.5959 2 -14.6150 85.7000 TC 30 3 224
1985012S11085 1985 7 SI MM NOT_NAMED 1985-01-15 00:00:00 TS -14.7667 85.5667 main 2070 2070 O_________O_O_ jtwc_sh SH121985 -14.7000 85.6000 XX 30 -5 -14.9000 85.5000 2 -14.7000 85.6000 TC 30 2 230
1985012S11085 1985 7 SI MM NOT_NAMED 1985-01-15 03:00:00 TS -14.8329 85.4761 main 2078 2078 P_________P_P_ SH121985 -14.7425 85.5000 XX 30 -5 -15.0136 85.4283 2 -14.7425 85.5000 TC 30 2 230
1985012S11085 1985 7 SI MM NOT_NAMED 1985-01-15 06:00:00 TS -14.9116 85.3841 main 2094 2094 O_________P_O_ jtwc_sh SH121985 -14.8000 85.4000 XX 30 -5 -15.1348 85.3522 2 -14.8000 85.4000 TC 30 3 220
1985012S11085 1985 7 SI MM NOT_NAMED 1985-01-15 09:00:00 TS -15.0445 85.2933 main 2109 2109 P_________P_P_ SH121985 -14.9350 85.3150 XX 32 -5 -15.2635 85.2501 2 -14.9350 85.3150 TC 32 4 216
1985012S11085 1985 7 SI MM NOT_NAMED 1985-01-15 12:00:00 TS -15.2000 85.1667 main 2133 2133 O_________O_O_ jtwc_sh SH121985 -15.1000 85.2000 XX 35 -5 -15.4000 85.1000 2 -15.1000 85.2000 TC 35 4 224
1985012S11085 1985 7 SI MM NOT_NAMED 1985-01-15 15:00:00 TS -15.3476 84.9888 main 2156 2156 P_________P_P_ SH121985 -15.2499 85.0375 XX 35 -5 -15.5428 84.8915 2 -15.2499 85.0375 TC 35 5 234
1985012S11085 1985 7 SI MM NOT_NAMED 1985-01-15 18:00:00 TS -15.4975 84.7441 main 2194 2194 O_________P_O_ jtwc_sh SH121985 -15.4000 84.8000 XX 35 -5 -15.6924 84.6324 2 -15.4000 84.8000 TC 35 6 241
1985012S11085 1985 7 SI MM NOT_NAMED 1985-01-15 21:00:00 TS -15.6436 84.4356 main 2226 2226 P_________P_P_ SH121985 -15.5425 84.4874 XX 35 -5 -15.8458 84.3321 2 -15.5425 84.4874 TC 35 7 245
1985012S11085 1985 7 SI MM NOT_NAMED 1985-01-16 00:00:00 TS -15.8000 84.0667 main 2264 2264 O_________O_O_ jtwc_sh SH121985 -15.7000 84.1000 XX 35 -5 -16.0000 84.0000 2 -15.7000 84.1000 TC 35 8 246
1985012S11085 1985 7 SI MM NOT_NAMED 1985-01-16 03:00:00 TS -15.9637 83.6754 main 2311 2311 P_________P_P_ SH121985 -15.8849 83.6724 XX 35 -5 -16.1212 83.6814 2 -15.8849 83.6724 TC 35 9 246
1985012S11085 1985 7 SI MM NOT_NAMED 1985-01-16 06:00:00 TS -16.1490 83.2437 main 2358 2358 O_________P_O_ jtwc_sh SH121985 -16.1000 83.2000 XX 35 -5 -16.2469 83.3312 2 -16.1000 83.2000 TC 35 9 245
1985012S11085 1985 7 SI MM NOT_NAMED 1985-01-16 09:00:00 TS -16.3563 82.7901 main 2413 2413 P_________P_P_ SH121985 -16.3349 82.7149 XX 35 -5 -16.3992 82.9405 2 -16.3349 82.7149 TC 35 10 244
1985012S11085 1985 7 SI MM NOT_NAMED 1985-01-16 12:00:00 TS -16.6000 82.3000 main 2467 2467 O_________O_O_ jtwc_sh SH121985 -16.6000 82.2000 XX 35 -5 -16.6000 82.5000 2 -16.6000 82.2000 TC 35 11 241
1985012S11085 1985 7 SI MM NOT_NAMED 1985-01-16 15:00:00 TS -16.8956 81.7746 main 2530 2496 P_________P_P_ SH121985 -16.8999 81.6575 XX 35 -5 -16.8869 82.0089 2 -16.8999 81.6575 TC 35 12 240
1985012S11085 1985 7 SI MM NOT_NAMED 1985-01-16 18:00:00 TS -17.2066 81.2227 main 2486 2427 O_________P_O_ jtwc_sh SH121985 -17.2000 81.1000 XX 35 -5 -17.2199 81.4681 2 -17.2000 81.1000 TC 35 12 241
1985012S11085 1985 7 SI MM NOT_NAMED 1985-01-16 21:00:00 TS -17.4892 80.6642 main 2427 2358 P_________P_P_ SH121985 -17.4499 80.5497 XX 35 -5 -17.5680 80.8932 2 -17.4499 80.5497 TC 35 12 242
1985012S11085 1985 7 SI MM NOT_NAMED 1985-01-17 00:00:00 TS -17.7667 80.1000 main 2358 2300 O_________O_O_ jtwc_sh SH121985 -17.7000 80.0000 XX 35 -5 -17.9000 80.3000 2 -17.7000 80.0000 TC 35 12 242
1985012S11085 1985 7 SI MM NOT_NAMED 1985-01-17 03:00:00 TS -18.0766 79.5220 main 2290 2232 P_________P_P_ SH121985 -18.0074 79.4426 XX 32 -5 -18.2150 79.6808 2 -18.0074 79.4426 TC 32 12 241
1985012S11085 1985 7 SI MM NOT_NAMED 1985-01-17 06:00:00 TS -18.3675 78.9510 main 2232 2166 O_________P_O_ jtwc_sh SH121985 -18.3000 78.9000 XX 30 -5 -18.5026 79.0529 2 -18.3000 78.9000 TC 30 12 244
1985012S11085 1985 7 SI MM NOT_NAMED 1985-01-17 09:00:00 TS -18.5995 78.4061 main 2166 2111 P_________P_P_ SH121985 -18.5299 78.3849 XX 30 -5 -18.7389 78.4484 2 -18.5299 78.3849 TC 30 11 248
1985012S11085 1985 7 SI MM NOT_NAMED 1985-01-17 12:00:00 TS -18.7667 77.9000 main 2111 2068 O_________O_O_ jtwc_sh SH121985 -18.7000 77.9000 XX 30 -5 -18.9000 77.9000 2 -18.7000 77.9000 TC 30 10 254
1985012S11085 1985 7 SI MM NOT_NAMED 1985-01-17 15:00:00 TS -18.8684 77.4376 main 2057 2016 P_________P_P_ SH121985 -18.8152 77.4426 XX 27 -5 -18.9748 77.4277 2 -18.8152 77.4426 TC 27 9 259
1985012S11085 1985 7 SI MM NOT_NAMED 1985-01-17 18:00:00 TS -18.9333 77.0000 main 2016 O_________O_O_ jtwc_sh SH121985 -18.9000 77.0000 XX 25 -5 -19.0000 77.0000 2 -18.9000 77.0000 TC 25 8 261

About IBTrACS Database

This database is a web-friendly format of International Best Track Archive for Climate Stewardship (IBTrACS), a global best track data archive curated by NOAA dating back to 1842.

Updated: 2021-10-08